sensor_id;sensor_type;location;lat;lon;timestamp;P1;durP1;ratioP1;P2;durP2;ratioP2
73264;SDS011;61493;51.008;14.088;2022-08-14T00:00:43;9.73;;;7.05;;
73264;SDS011;61493;51.008;14.088;2022-08-14T00:03:26;14.48;;;8.07;;
73264;SDS011;61493;51.008;14.088;2022-08-14T00:08:19;10.05;;;7.40;;
73264;SDS011;61493;51.008;14.088;2022-08-14T00:10:45;8.73;;;6.65;;
73264;SDS011;61493;51.008;14.088;2022-08-14T00:13:11;11.02;;;7.30;;
73264;SDS011;61493;51.008;14.088;2022-08-14T00:15:37;8.90;;;6.68;;
73264;SDS011;61493;51.008;14.088;2022-08-14T00:18:05;10.05;;;6.95;;
73264;SDS011;61493;51.008;14.088;2022-08-14T00:20:33;10.88;;;7.20;;
73264;SDS011;61493;51.008;14.088;2022-08-14T00:23:00;9.95;;;7.05;;
73264;SDS011;61493;51.008;14.088;2022-08-14T00:25:25;10.18;;;6.57;;
73264;SDS011;61493;51.008;14.088;2022-08-14T00:27:52;11.32;;;7.63;;
73264;SDS011;61493;51.008;14.088;2022-08-14T00:30:18;10.90;;;7.68;;
73264;SDS011;61493;51.008;14.088;2022-08-14T00:32:43;10.23;;;7.20;;
73264;SDS011;61493;51.008;14.088;2022-08-14T00:35:09;9.60;;;7.07;;
73264;SDS011;61493;51.008;14.088;2022-08-14T00:37:36;12.18;;;8.13;;
73264;SDS011;61493;51.008;14.088;2022-08-14T00:40:02;10.60;;;7.72;;
73264;SDS011;61493;51.008;14.088;2022-08-14T00:42:28;11.50;;;8.52;;
73264;SDS011;61493;51.008;14.088;2022-08-14T00:44:54;12.60;;;9.00;;
73264;SDS011;61493;51.008;14.088;2022-08-14T00:47:20;14.50;;;9.30;;
73264;SDS011;61493;51.008;14.088;2022-08-14T00:49:49;12.48;;;9.13;;
73264;SDS011;61493;51.008;14.088;2022-08-14T00:52:15;11.02;;;8.35;;
73264;SDS011;61493;51.008;14.088;2022-08-14T00:54:41;11.70;;;8.07;;
73264;SDS011;61493;51.008;14.088;2022-08-14T00:57:08;12.75;;;8.23;;
73264;SDS011;61493;51.008;14.088;2022-08-14T00:59:34;10.85;;;8.10;;
73264;SDS011;61493;51.008;14.088;2022-08-14T01:02:00;14.23;;;9.73;;
73264;SDS011;61493;51.008;14.088;2022-08-14T01:04:27;11.65;;;8.27;;
73264;SDS011;61493;51.008;14.088;2022-08-14T01:06:55;12.25;;;8.63;;
73264;SDS011;61493;51.008;14.088;2022-08-14T01:09:22;11.63;;;8.90;;
73264;SDS011;61493;51.008;14.088;2022-08-14T01:11:49;11.85;;;8.35;;
73264;SDS011;61493;51.008;14.088;2022-08-14T01:14:16;9.77;;;7.10;;
73264;SDS011;61493;51.008;14.088;2022-08-14T01:16:42;10.35;;;7.22;;
73264;SDS011;61493;51.008;14.088;2022-08-14T01:19:07;13.45;;;8.40;;
73264;SDS011;61493;51.008;14.088;2022-08-14T01:22:02;10.90;;;7.00;;
73264;SDS011;61493;51.008;14.088;2022-08-14T01:24:27;10.68;;;7.03;;
73264;SDS011;61493;51.008;14.088;2022-08-14T01:26:52;10.98;;;7.32;;
73264;SDS011;61493;51.008;14.088;2022-08-14T01:29:18;11.85;;;8.23;;
73264;SDS011;61493;51.008;14.088;2022-08-14T01:31:44;13.07;;;8.32;;
73264;SDS011;61493;51.008;14.088;2022-08-14T01:34:19;11.15;;;7.65;;
73264;SDS011;61493;51.008;14.088;2022-08-14T01:36:47;10.88;;;7.10;;
73264;SDS011;61493;51.008;14.088;2022-08-14T01:39:15;12.32;;;8.82;;
73264;SDS011;61493;51.008;14.088;2022-08-14T01:41:42;10.48;;;7.22;;
73264;SDS011;61493;51.008;14.088;2022-08-14T01:44:11;10.70;;;7.85;;
73264;SDS011;61493;51.008;14.088;2022-08-14T01:46:40;10.52;;;7.18;;
73264;SDS011;61493;51.008;14.088;2022-08-14T01:49:09;13.15;;;8.95;;
73264;SDS011;61493;51.008;14.088;2022-08-14T01:51:39;12.50;;;8.88;;
73264;SDS011;61493;51.008;14.088;2022-08-14T01:54:07;10.82;;;7.95;;
73264;SDS011;61493;51.008;14.088;2022-08-14T01:56:35;12.20;;;8.68;;
73264;SDS011;61493;51.008;14.088;2022-08-14T01:59:03;10.05;;;7.68;;
73264;SDS011;61493;51.008;14.088;2022-08-14T02:01:45;13.00;;;9.32;;
73264;SDS011;61493;51.008;14.088;2022-08-14T02:34:34;13.40;;;9.35;;
73264;SDS011;61493;51.008;14.088;2022-08-14T02:37:10;12.55;;;8.13;;
73264;SDS011;61493;51.008;14.088;2022-08-14T02:39:37;12.60;;;8.90;;
73264;SDS011;61493;51.008;14.088;2022-08-14T02:42:07;12.95;;;9.02;;
73264;SDS011;61493;51.008;14.088;2022-08-14T02:44:34;14.05;;;9.68;;
73264;SDS011;61493;51.008;14.088;2022-08-14T02:46:59;13.00;;;10.10;;
73264;SDS011;61493;51.008;14.088;2022-08-14T02:49:25;13.20;;;8.85;;
73264;SDS011;61493;51.008;14.088;2022-08-14T02:51:53;11.95;;;8.65;;
73264;SDS011;61493;51.008;14.088;2022-08-14T02:54:20;11.95;;;8.85;;
73264;SDS011;61493;51.008;14.088;2022-08-14T02:56:47;11.93;;;9.75;;
73264;SDS011;61493;51.008;14.088;2022-08-14T02:59:14;11.90;;;8.73;;
73264;SDS011;61493;51.008;14.088;2022-08-14T03:01:41;12.02;;;8.48;;
73264;SDS011;61493;51.008;14.088;2022-08-14T03:04:06;13.25;;;8.45;;
73264;SDS011;61493;51.008;14.088;2022-08-14T03:06:34;11.77;;;8.35;;
73264;SDS011;61493;51.008;14.088;2022-08-14T03:09:02;11.98;;;8.80;;
73264;SDS011;61493;51.008;14.088;2022-08-14T03:11:28;13.27;;;9.60;;
73264;SDS011;61493;51.008;14.088;2022-08-14T03:13:54;11.77;;;8.32;;
73264;SDS011;61493;51.008;14.088;2022-08-14T03:16:23;10.68;;;8.45;;
73264;SDS011;61493;51.008;14.088;2022-08-14T03:18:50;12.23;;;8.68;;
73264;SDS011;61493;51.008;14.088;2022-08-14T03:21:19;11.43;;;8.75;;
73264;SDS011;61493;51.008;14.088;2022-08-14T03:23:46;13.13;;;9.13;;
73264;SDS011;61493;51.008;14.088;2022-08-14T03:26:15;11.98;;;8.32;;
73264;SDS011;61493;51.008;14.088;2022-08-14T03:28:50;11.13;;;8.18;;
73264;SDS011;61493;51.008;14.088;2022-08-14T03:31:16;11.93;;;8.02;;
73264;SDS011;61493;51.008;14.088;2022-08-14T03:33:46;11.13;;;8.23;;
73264;SDS011;61493;51.008;14.088;2022-08-14T03:36:12;12.70;;;9.07;;
73264;SDS011;61493;51.008;14.088;2022-08-14T03:38:40;13.25;;;8.93;;
73264;SDS011;61493;51.008;14.088;2022-08-14T03:41:08;11.05;;;8.20;;
73264;SDS011;61493;51.008;14.088;2022-08-14T03:43:44;11.82;;;8.15;;
73264;SDS011;61493;51.008;14.088;2022-08-14T03:46:11;12.68;;;8.63;;
73264;SDS011;61493;51.008;14.088;2022-08-14T03:48:38;12.63;;;9.10;;
73264;SDS011;61493;51.008;14.088;2022-08-14T03:51:07;12.75;;;8.98;;
73264;SDS011;61493;51.008;14.088;2022-08-14T03:53:34;11.25;;;7.90;;
73264;SDS011;61493;51.008;14.088;2022-08-14T03:56:07;11.85;;;8.77;;
73264;SDS011;61493;51.008;14.088;2022-08-14T03:58:38;11.55;;;8.25;;
73264;SDS011;61493;51.008;14.088;2022-08-14T04:01:06;11.07;;;8.35;;
73264;SDS011;61493;51.008;14.088;2022-08-14T04:03:32;13.32;;;8.88;;
73264;SDS011;61493;51.008;14.088;2022-08-14T04:05:58;15.35;;;10.52;;
73264;SDS011;61493;51.008;14.088;2022-08-14T04:08:23;14.18;;;9.63;;
73264;SDS011;61493;51.008;14.088;2022-08-14T04:10:49;14.65;;;10.77;;
73264;SDS011;61493;51.008;14.088;2022-08-14T04:13:14;12.43;;;9.07;;
73264;SDS011;61493;51.008;14.088;2022-08-14T04:15:45;12.80;;;8.73;;
73264;SDS011;61493;51.008;14.088;2022-08-14T04:18:12;12.48;;;8.80;;
73264;SDS011;61493;51.008;14.088;2022-08-14T04:20:38;13.48;;;9.52;;
73264;SDS011;61493;51.008;14.088;2022-08-14T04:23:06;12.18;;;8.85;;
73264;SDS011;61493;51.008;14.088;2022-08-14T04:25:32;11.77;;;8.55;;
73264;SDS011;61493;51.008;14.088;2022-08-14T04:28:00;11.95;;;8.07;;
73264;SDS011;61493;51.008;14.088;2022-08-14T04:30:27;12.15;;;8.88;;
73264;SDS011;61493;51.008;14.088;2022-08-14T04:32:55;11.85;;;8.75;;
73264;SDS011;61493;51.008;14.088;2022-08-14T04:35:21;11.93;;;8.40;;
73264;SDS011;61493;51.008;14.088;2022-08-14T04:37:46;12.10;;;8.10;;
73264;SDS011;61493;51.008;14.088;2022-08-14T04:40:33;11.05;;;7.38;;
73264;SDS011;61493;51.008;14.088;2022-08-14T04:43:17;12.82;;;9.18;;
73264;SDS011;61493;51.008;14.088;2022-08-14T04:46:07;12.27;;;8.45;;
73264;SDS011;61493;51.008;14.088;2022-08-14T04:48:34;12.30;;;8.98;;
73264;SDS011;61493;51.008;14.088;2022-08-14T04:50:59;12.52;;;8.55;;
73264;SDS011;61493;51.008;14.088;2022-08-14T04:53:26;13.23;;;9.32;;
73264;SDS011;61493;51.008;14.088;2022-08-14T04:55:55;16.25;;;10.77;;
73264;SDS011;61493;51.008;14.088;2022-08-14T04:58:22;13.52;;;10.65;;
73264;SDS011;61493;51.008;14.088;2022-08-14T05:00:50;14.05;;;9.63;;
73264;SDS011;61493;51.008;14.088;2022-08-14T05:03:16;15.20;;;9.88;;
73264;SDS011;61493;51.008;14.088;2022-08-14T05:05:49;11.15;;;8.35;;
73264;SDS011;61493;51.008;14.088;2022-08-14T05:08:16;10.68;;;8.73;;
73264;SDS011;61493;51.008;14.088;2022-08-14T05:10:43;12.27;;;9.18;;
73264;SDS011;61493;51.008;14.088;2022-08-14T05:13:10;16.08;;;10.73;;
73264;SDS011;61493;51.008;14.088;2022-08-14T05:15:38;13.65;;;10.40;;
73264;SDS011;61493;51.008;14.088;2022-08-14T05:18:08;11.18;;;9.00;;
73264;SDS011;61493;51.008;14.088;2022-08-14T05:20:36;11.57;;;8.90;;
73264;SDS011;61493;51.008;14.088;2022-08-14T05:23:07;12.07;;;8.43;;
73264;SDS011;61493;51.008;14.088;2022-08-14T05:25:40;11.75;;;9.02;;
73264;SDS011;61493;51.008;14.088;2022-08-14T05:28:07;11.05;;;8.30;;
73264;SDS011;61493;51.008;14.088;2022-08-14T05:30:34;9.60;;;8.27;;
73264;SDS011;61493;51.008;14.088;2022-08-14T05:33:00;10.05;;;8.50;;
73264;SDS011;61493;51.008;14.088;2022-08-14T05:35:26;10.68;;;8.55;;
73264;SDS011;61493;51.008;14.088;2022-08-14T05:37:51;9.73;;;8.00;;
73264;SDS011;61493;51.008;14.088;2022-08-14T05:40:17;11.48;;;7.85;;
73264;SDS011;61493;51.008;14.088;2022-08-14T05:42:43;11.93;;;8.80;;
73264;SDS011;61493;51.008;14.088;2022-08-14T05:45:08;10.38;;;8.25;;
73264;SDS011;61493;51.008;14.088;2022-08-14T05:47:37;10.73;;;8.30;;
73264;SDS011;61493;51.008;14.088;2022-08-14T05:50:04;9.75;;;8.75;;
73264;SDS011;61493;51.008;14.088;2022-08-14T05:52:31;9.55;;;7.68;;
73264;SDS011;61493;51.008;14.088;2022-08-14T05:54:56;9.27;;;8.07;;
73264;SDS011;61493;51.008;14.088;2022-08-14T05:57:22;9.35;;;8.07;;
73264;SDS011;61493;51.008;14.088;2022-08-14T05:59:50;9.35;;;8.20;;
73264;SDS011;61493;51.008;14.088;2022-08-14T06:02:15;9.60;;;7.60;;
73264;SDS011;61493;51.008;14.088;2022-08-14T06:04:41;8.88;;;7.68;;
73264;SDS011;61493;51.008;14.088;2022-08-14T06:07:15;9.07;;;7.55;;
73264;SDS011;61493;51.008;14.088;2022-08-14T06:09:41;9.75;;;8.45;;
73264;SDS011;61493;51.008;14.088;2022-08-14T06:12:09;10.25;;;8.32;;
73264;SDS011;61493;51.008;14.088;2022-08-14T06:14:35;11.25;;;8.50;;
73264;SDS011;61493;51.008;14.088;2022-08-14T06:17:01;11.73;;;9.23;;
73264;SDS011;61493;51.008;14.088;2022-08-14T06:19:26;10.93;;;8.23;;
73264;SDS011;61493;51.008;14.088;2022-08-14T06:21:51;12.00;;;8.98;;
73264;SDS011;61493;51.008;14.088;2022-08-14T06:24:17;10.90;;;8.35;;
73264;SDS011;61493;51.008;14.088;2022-08-14T06:26:44;9.57;;;8.02;;
73264;SDS011;61493;51.008;14.088;2022-08-14T06:29:10;10.80;;;8.00;;
73264;SDS011;61493;51.008;14.088;2022-08-14T06:31:35;9.07;;;7.65;;
73264;SDS011;61493;51.008;14.088;2022-08-14T06:34:00;10.43;;;8.23;;
73264;SDS011;61493;51.008;14.088;2022-08-14T06:36:26;9.45;;;8.15;;
73264;SDS011;61493;51.008;14.088;2022-08-14T06:38:52;10.48;;;8.45;;
73264;SDS011;61493;51.008;14.088;2022-08-14T06:41:17;11.23;;;8.38;;
73264;SDS011;61493;51.008;14.088;2022-08-14T06:43:43;9.88;;;8.05;;
73264;SDS011;61493;51.008;14.088;2022-08-14T06:46:08;9.55;;;7.90;;
73264;SDS011;61493;51.008;14.088;2022-08-14T06:48:33;9.60;;;7.90;;
73264;SDS011;61493;51.008;14.088;2022-08-14T06:50:59;9.05;;;7.90;;
73264;SDS011;61493;51.008;14.088;2022-08-14T06:53:24;13.10;;;9.27;;
73264;SDS011;61493;51.008;14.088;2022-08-14T06:55:49;10.43;;;8.65;;
73264;SDS011;61493;51.008;14.088;2022-08-14T06:58:16;10.85;;;8.32;;
73264;SDS011;61493;51.008;14.088;2022-08-14T07:00:43;10.18;;;8.75;;
73264;SDS011;61493;51.008;14.088;2022-08-14T07:03:29;11.13;;;9.75;;
73264;SDS011;61493;51.008;14.088;2022-08-14T07:06:14;11.30;;;9.10;;
73264;SDS011;61493;51.008;14.088;2022-08-14T07:08:40;10.55;;;8.52;;
73264;SDS011;61493;51.008;14.088;2022-08-14T07:11:07;11.50;;;9.20;;
73264;SDS011;61493;51.008;14.088;2022-08-14T07:13:33;12.15;;;8.80;;
73264;SDS011;61493;51.008;14.088;2022-08-14T07:16:01;10.65;;;9.25;;
73264;SDS011;61493;51.008;14.088;2022-08-14T07:18:27;11.68;;;9.23;;
73264;SDS011;61493;51.008;14.088;2022-08-14T07:20:55;10.38;;;8.48;;
73264;SDS011;61493;51.008;14.088;2022-08-14T07:23:22;10.75;;;8.35;;
73264;SDS011;61493;51.008;14.088;2022-08-14T07:25:48;10.52;;;8.93;;
73264;SDS011;61493;51.008;14.088;2022-08-14T07:28:20;11.38;;;8.77;;
73264;SDS011;61493;51.008;14.088;2022-08-14T07:31:03;10.70;;;8.65;;
73264;SDS011;61493;51.008;14.088;2022-08-14T07:33:32;9.60;;;8.38;;
73264;SDS011;61493;51.008;14.088;2022-08-14T07:36:01;11.23;;;8.27;;
73264;SDS011;61493;51.008;14.088;2022-08-14T07:38:28;9.27;;;8.27;;
73264;SDS011;61493;51.008;14.088;2022-08-14T07:40:54;8.93;;;8.02;;
73264;SDS011;61493;51.008;14.088;2022-08-14T07:43:20;10.20;;;9.20;;
73264;SDS011;61493;51.008;14.088;2022-08-14T07:45:46;9.63;;;7.30;;
73264;SDS011;61493;51.008;14.088;2022-08-14T07:48:11;9.15;;;7.18;;
73264;SDS011;61493;51.008;14.088;2022-08-14T07:50:36;9.88;;;7.57;;
73264;SDS011;61493;51.008;14.088;2022-08-14T07:53:03;8.60;;;7.38;;
73264;SDS011;61493;51.008;14.088;2022-08-14T07:55:30;8.38;;;7.53;;
73264;SDS011;61493;51.008;14.088;2022-08-14T07:57:56;8.35;;;7.45;;
73264;SDS011;61493;51.008;14.088;2022-08-14T08:00:22;7.55;;;6.80;;
73264;SDS011;61493;51.008;14.088;2022-08-14T08:02:49;6.95;;;6.30;;
73264;SDS011;61493;51.008;14.088;2022-08-14T08:05:17;7.05;;;6.35;;
73264;SDS011;61493;51.008;14.088;2022-08-14T08:07:44;6.40;;;5.80;;
73264;SDS011;61493;51.008;14.088;2022-08-14T08:10:14;9.07;;;6.20;;
73264;SDS011;61493;51.008;14.088;2022-08-14T08:15:29;5.97;;;5.38;;
73264;SDS011;61493;51.008;14.088;2022-08-14T08:17:56;6.13;;;5.40;;
73264;SDS011;61493;51.008;14.088;2022-08-14T08:20:23;6.88;;;5.55;;
73264;SDS011;61493;51.008;14.088;2022-08-14T08:22:51;6.55;;;4.97;;
73264;SDS011;61493;51.008;14.088;2022-08-14T08:25:19;7.07;;;5.25;;
73264;SDS011;61493;51.008;14.088;2022-08-14T08:30:19;4.82;;;4.32;;
73264;SDS011;61493;51.008;14.088;2022-08-14T08:32:45;6.60;;;4.65;;
73264;SDS011;61493;51.008;14.088;2022-08-14T08:35:17;6.30;;;4.90;;
73264;SDS011;61493;51.008;14.088;2022-08-14T08:37:47;5.78;;;4.45;;
73264;SDS011;61493;51.008;14.088;2022-08-14T08:40:48;5.55;;;4.30;;
73264;SDS011;61493;51.008;14.088;2022-08-14T08:43:07;4.65;;;4.22;;
73264;SDS011;61493;51.008;14.088;2022-08-14T08:45:40;5.88;;;5.03;;
73264;SDS011;61493;51.008;14.088;2022-08-14T08:48:05;4.82;;;4.25;;
73264;SDS011;61493;51.008;14.088;2022-08-14T08:50:35;5.00;;;4.38;;
73264;SDS011;61493;51.008;14.088;2022-08-14T08:53:05;5.57;;;4.45;;
73264;SDS011;61493;51.008;14.088;2022-08-14T08:55:32;5.93;;;4.97;;
73264;SDS011;61493;51.008;14.088;2022-08-14T08:58:05;5.95;;;4.72;;
73264;SDS011;61493;51.008;14.088;2022-08-14T09:00:32;7.18;;;4.93;;
73264;SDS011;61493;51.008;14.088;2022-08-14T09:05:30;7.18;;;5.38;;
73264;SDS011;61493;51.008;14.088;2022-08-14T09:08:10;5.97;;;4.90;;
73264;SDS011;61493;51.008;14.088;2022-08-14T09:10:38;5.35;;;4.72;;
73264;SDS011;61493;51.008;14.088;2022-08-14T09:13:04;8.27;;;4.65;;
73264;SDS011;61493;51.008;14.088;2022-08-14T09:15:29;5.47;;;4.32;;
73264;SDS011;61493;51.008;14.088;2022-08-14T09:17:55;7.57;;;4.25;;
73264;SDS011;61493;51.008;14.088;2022-08-14T09:20:21;6.20;;;4.68;;
73264;SDS011;61493;51.008;14.088;2022-08-14T09:22:47;6.82;;;4.85;;
73264;SDS011;61493;51.008;14.088;2022-08-14T09:25:14;6.15;;;4.82;;
73264;SDS011;61493;51.008;14.088;2022-08-14T09:27:40;7.28;;;4.72;;
73264;SDS011;61493;51.008;14.088;2022-08-14T09:30:06;6.97;;;5.55;;
73264;SDS011;61493;51.008;14.088;2022-08-14T09:35:42;5.70;;;4.25;;
73264;SDS011;61493;51.008;14.088;2022-08-14T09:38:23;5.57;;;4.70;;
73264;SDS011;61493;51.008;14.088;2022-08-14T09:41:12;6.00;;;4.30;;
73264;SDS011;61493;51.008;14.088;2022-08-14T09:43:58;6.15;;;4.60;;
73264;SDS011;61493;51.008;14.088;2022-08-14T09:46:32;5.88;;;5.20;;
73264;SDS011;61493;51.008;14.088;2022-08-14T09:49:05;6.07;;;4.43;;
73264;SDS011;61493;51.008;14.088;2022-08-14T09:54:05;4.63;;;4.03;;
73264;SDS011;61493;51.008;14.088;2022-08-14T09:56:45;4.88;;;4.38;;
73264;SDS011;61493;51.008;14.088;2022-08-14T09:59:12;5.43;;;4.22;;
73264;SDS011;61493;51.008;14.088;2022-08-14T10:01:39;5.82;;;4.53;;
73264;SDS011;61493;51.008;14.088;2022-08-14T10:04:23;6.55;;;4.60;;
73264;SDS011;61493;51.008;14.088;2022-08-14T10:06:49;5.63;;;4.72;;
73264;SDS011;61493;51.008;14.088;2022-08-14T10:09:15;5.55;;;4.68;;
73264;SDS011;61493;51.008;14.088;2022-08-14T10:11:54;4.68;;;4.20;;
73264;SDS011;61493;51.008;14.088;2022-08-14T10:14:22;6.43;;;5.18;;
73264;SDS011;61493;51.008;14.088;2022-08-14T10:16:53;5.80;;;4.82;;
73264;SDS011;61493;51.008;14.088;2022-08-14T10:19:21;5.70;;;4.78;;
73264;SDS011;61493;51.008;14.088;2022-08-14T10:21:58;6.22;;;4.85;;
73264;SDS011;61493;51.008;14.088;2022-08-14T10:24:27;6.82;;;4.50;;
73264;SDS011;61493;51.008;14.088;2022-08-14T10:27:00;6.68;;;4.75;;
73264;SDS011;61493;51.008;14.088;2022-08-14T10:29:36;7.05;;;4.55;;
73264;SDS011;61493;51.008;14.088;2022-08-14T10:32:02;8.13;;;5.25;;
73264;SDS011;61493;51.008;14.088;2022-08-14T10:34:32;5.07;;;4.55;;
73264;SDS011;61493;51.008;14.088;2022-08-14T10:37:04;5.50;;;4.95;;
73264;SDS011;61493;51.008;14.088;2022-08-14T10:39:38;5.30;;;4.03;;
73264;SDS011;61493;51.008;14.088;2022-08-14T10:44:42;4.65;;;3.88;;
73264;SDS011;61493;51.008;14.088;2022-08-14T10:47:11;9.05;;;8.30;;
73264;SDS011;61493;51.008;14.088;2022-08-14T10:49:39;5.22;;;4.47;;
73264;SDS011;61493;51.008;14.088;2022-08-14T10:52:21;6.93;;;4.40;;
73264;SDS011;61493;51.008;14.088;2022-08-14T10:54:48;6.50;;;4.45;;
73264;SDS011;61493;51.008;14.088;2022-08-14T10:57:19;6.78;;;4.78;;
73264;SDS011;61493;51.008;14.088;2022-08-14T10:59:58;5.95;;;4.82;;
73264;SDS011;61493;51.008;14.088;2022-08-14T11:02:30;6.28;;;4.90;;
73264;SDS011;61493;51.008;14.088;2022-08-14T11:07:49;5.65;;;4.97;;
73264;SDS011;61493;51.008;14.088;2022-08-14T11:10:20;5.72;;;4.57;;
73264;SDS011;61493;51.008;14.088;2022-08-14T11:12:48;6.18;;;4.90;;
73264;SDS011;61493;51.008;14.088;2022-08-14T11:15:16;6.13;;;5.53;;
73264;SDS011;61493;51.008;14.088;2022-08-14T11:17:44;6.90;;;5.45;;
73264;SDS011;61493;51.008;14.088;2022-08-14T11:20:15;6.20;;;5.00;;
73264;SDS011;61493;51.008;14.088;2022-08-14T11:22:42;6.18;;;4.97;;
73264;SDS011;61493;51.008;14.088;2022-08-14T11:25:12;6.40;;;4.95;;
73264;SDS011;61493;51.008;14.088;2022-08-14T11:27:44;7.13;;;5.20;;
73264;SDS011;61493;51.008;14.088;2022-08-14T11:30:15;6.10;;;5.13;;
73264;SDS011;61493;51.008;14.088;2022-08-14T11:32:44;8.40;;;5.57;;
73264;SDS011;61493;51.008;14.088;2022-08-14T11:35:13;9.15;;;5.18;;
73264;SDS011;61493;51.008;14.088;2022-08-14T11:37:49;6.28;;;5.07;;
73264;SDS011;61493;51.008;14.088;2022-08-14T11:40:15;5.47;;;4.80;;
73264;SDS011;61493;51.008;14.088;2022-08-14T11:42:43;6.90;;;5.25;;
73264;SDS011;61493;51.008;14.088;2022-08-14T11:45:10;7.60;;;6.30;;
73264;SDS011;61493;51.008;14.088;2022-08-14T11:47:36;6.22;;;5.63;;
73264;SDS011;61493;51.008;14.088;2022-08-14T11:50:10;8.32;;;6.18;;
73264;SDS011;61493;51.008;14.088;2022-08-14T11:52:36;7.00;;;6.15;;
73264;SDS011;61493;51.008;14.088;2022-08-14T11:55:02;6.07;;;5.32;;
73264;SDS011;61493;51.008;14.088;2022-08-14T11:57:32;7.35;;;6.07;;
73264;SDS011;61493;51.008;14.088;2022-08-14T12:00:03;7.45;;;5.53;;
73264;SDS011;61493;51.008;14.088;2022-08-14T12:02:32;11.90;;;9.20;;
73264;SDS011;61493;51.008;14.088;2022-08-14T12:04:57;7.22;;;5.82;;
73264;SDS011;61493;51.008;14.088;2022-08-14T12:07:22;9.90;;;6.72;;
73264;SDS011;61493;51.008;14.088;2022-08-14T12:09:51;9.30;;;5.82;;
73264;SDS011;61493;51.008;14.088;2022-08-14T12:12:18;7.78;;;5.78;;
73264;SDS011;61493;51.008;14.088;2022-08-14T12:14:55;7.32;;;6.07;;
73264;SDS011;61493;51.008;14.088;2022-08-14T12:17:27;6.93;;;6.22;;
73264;SDS011;61493;51.008;14.088;2022-08-14T12:19:57;7.82;;;5.72;;
73264;SDS011;61493;51.008;14.088;2022-08-14T12:22:31;7.97;;;6.00;;
73264;SDS011;61493;51.008;14.088;2022-08-14T12:24:57;7.22;;;6.30;;
73264;SDS011;61493;51.008;14.088;2022-08-14T12:27:22;8.65;;;5.93;;
73264;SDS011;61493;51.008;14.088;2022-08-14T12:30:02;7.90;;;5.50;;
73264;SDS011;61493;51.008;14.088;2022-08-14T12:32:38;7.15;;;5.15;;
73264;SDS011;61493;51.008;14.088;2022-08-14T12:35:04;7.03;;;5.03;;
73264;SDS011;61493;51.008;14.088;2022-08-14T12:37:30;6.30;;;5.10;;
73264;SDS011;61493;51.008;14.088;2022-08-14T12:40:06;6.93;;;5.63;;
73264;SDS011;61493;51.008;14.088;2022-08-14T12:42:35;6.60;;;5.43;;
73264;SDS011;61493;51.008;14.088;2022-08-14T12:45:01;7.07;;;5.70;;
73264;SDS011;61493;51.008;14.088;2022-08-14T12:47:27;7.78;;;6.45;;
73264;SDS011;61493;51.008;14.088;2022-08-14T12:49:55;7.68;;;5.60;;
73264;SDS011;61493;51.008;14.088;2022-08-14T12:52:27;6.57;;;5.70;;
73264;SDS011;61493;51.008;14.088;2022-08-14T12:54:58;7.60;;;5.68;;
73264;SDS011;61493;51.008;14.088;2022-08-14T12:57:47;7.22;;;5.82;;
73264;SDS011;61493;51.008;14.088;2022-08-14T13:00:17;6.72;;;5.38;;
73264;SDS011;61493;51.008;14.088;2022-08-14T13:02:45;8.23;;;5.63;;
73264;SDS011;61493;51.008;14.088;2022-08-14T13:05:14;8.50;;;5.82;;
73264;SDS011;61493;51.008;14.088;2022-08-14T13:07:41;9.20;;;5.45;;
73264;SDS011;61493;51.008;14.088;2022-08-14T13:10:11;6.35;;;5.30;;
73264;SDS011;61493;51.008;14.088;2022-08-14T13:12:41;8.15;;;5.53;;
73264;SDS011;61493;51.008;14.088;2022-08-14T13:15:08;6.18;;;5.40;;
73264;SDS011;61493;51.008;14.088;2022-08-14T13:17:46;8.68;;;5.38;;
73264;SDS011;61493;51.008;14.088;2022-08-14T13:20:17;7.45;;;5.63;;
73264;SDS011;61493;51.008;14.088;2022-08-14T13:22:44;8.07;;;5.50;;
73264;SDS011;61493;51.008;14.088;2022-08-14T13:25:14;6.68;;;5.82;;
73264;SDS011;61493;51.008;14.088;2022-08-14T13:27:43;8.00;;;6.30;;
73264;SDS011;61493;51.008;14.088;2022-08-14T13:30:10;7.53;;;6.50;;
73264;SDS011;61493;51.008;14.088;2022-08-14T13:32:36;6.70;;;5.68;;
73264;SDS011;61493;51.008;14.088;2022-08-14T13:35:07;8.05;;;5.50;;
73264;SDS011;61493;51.008;14.088;2022-08-14T13:37:33;8.77;;;6.35;;
73264;SDS011;61493;51.008;14.088;2022-08-14T13:39:59;7.47;;;5.57;;
73264;SDS011;61493;51.008;14.088;2022-08-14T13:42:25;8.65;;;6.05;;
73264;SDS011;61493;51.008;14.088;2022-08-14T13:44:52;7.95;;;6.30;;
73264;SDS011;61493;51.008;14.088;2022-08-14T13:47:19;7.15;;;6.13;;
73264;SDS011;61493;51.008;14.088;2022-08-14T13:49:50;7.47;;;5.88;;
73264;SDS011;61493;51.008;14.088;2022-08-14T13:52:17;7.28;;;5.88;;
73264;SDS011;61493;51.008;14.088;2022-08-14T13:54:45;7.65;;;5.97;;
73264;SDS011;61493;51.008;14.088;2022-08-14T13:57:12;9.40;;;6.70;;
73264;SDS011;61493;51.008;14.088;2022-08-14T13:59:42;7.00;;;5.22;;
73264;SDS011;61493;51.008;14.088;2022-08-14T14:02:11;6.53;;;5.20;;
73264;SDS011;61493;51.008;14.088;2022-08-14T14:04:38;7.25;;;5.70;;
73264;SDS011;61493;51.008;14.088;2022-08-14T14:07:05;7.18;;;6.20;;
73264;SDS011;61493;51.008;14.088;2022-08-14T14:09:35;7.95;;;5.75;;
73264;SDS011;61493;51.008;14.088;2022-08-14T14:12:04;6.30;;;5.38;;
73264;SDS011;61493;51.008;14.088;2022-08-14T14:14:32;8.40;;;5.93;;
73264;SDS011;61493;51.008;14.088;2022-08-14T14:17:02;7.03;;;5.75;;
73264;SDS011;61493;51.008;14.088;2022-08-14T14:19:31;6.03;;;5.43;;
73264;SDS011;61493;51.008;14.088;2022-08-14T14:21:59;8.68;;;5.82;;
73264;SDS011;61493;51.008;14.088;2022-08-14T14:24:26;7.47;;;5.10;;
73264;SDS011;61493;51.008;14.088;2022-08-14T14:27:07;7.65;;;5.35;;
73264;SDS011;61493;51.008;14.088;2022-08-14T14:29:33;7.63;;;4.95;;
73264;SDS011;61493;51.008;14.088;2022-08-14T14:32:00;6.35;;;5.22;;
73264;SDS011;61493;51.008;14.088;2022-08-14T14:34:27;6.72;;;4.97;;
73264;SDS011;61493;51.008;14.088;2022-08-14T14:36:54;6.93;;;5.43;;
73264;SDS011;61493;51.008;14.088;2022-08-14T14:39:21;7.45;;;5.00;;
73264;SDS011;61493;51.008;14.088;2022-08-14T14:41:53;8.55;;;6.53;;
73264;SDS011;61493;51.008;14.088;2022-08-14T14:44:25;6.80;;;5.30;;
73264;SDS011;61493;51.008;14.088;2022-08-14T14:46:56;8.10;;;5.40;;
73264;SDS011;61493;51.008;14.088;2022-08-14T14:49:22;6.60;;;5.00;;
73264;SDS011;61493;51.008;14.088;2022-08-14T14:51:48;6.72;;;5.50;;
73264;SDS011;61493;51.008;14.088;2022-08-14T14:54:15;6.60;;;5.35;;
73264;SDS011;61493;51.008;14.088;2022-08-14T14:56:42;6.13;;;5.45;;
73264;SDS011;61493;51.008;14.088;2022-08-14T14:59:09;7.22;;;5.45;;
73264;SDS011;61493;51.008;14.088;2022-08-14T15:01:35;7.93;;;5.55;;
73264;SDS011;61493;51.008;14.088;2022-08-14T15:04:02;8.15;;;5.70;;
73264;SDS011;61493;51.008;14.088;2022-08-14T15:06:29;6.20;;;5.00;;
73264;SDS011;61493;51.008;14.088;2022-08-14T15:08:55;7.18;;;4.90;;
73264;SDS011;61493;51.008;14.088;2022-08-14T15:11:21;6.70;;;5.53;;
73264;SDS011;61493;51.008;14.088;2022-08-14T15:13:47;6.55;;;5.22;;
73264;SDS011;61493;51.008;14.088;2022-08-14T15:16:12;6.68;;;4.97;;
73264;SDS011;61493;51.008;14.088;2022-08-14T15:18:38;7.45;;;5.18;;
73264;SDS011;61493;51.008;14.088;2022-08-14T15:21:04;9.23;;;5.45;;
73264;SDS011;61493;51.008;14.088;2022-08-14T15:23:30;8.65;;;5.65;;
73264;SDS011;61493;51.008;14.088;2022-08-14T15:25:55;7.03;;;5.22;;
73264;SDS011;61493;51.008;14.088;2022-08-14T15:28:21;7.30;;;5.20;;